createdAt,value
2019-03-29T00:00:08.629Z,7.57
2019-03-29T00:02:37.979Z,7.90
2019-03-29T00:05:07.476Z,6.80
2019-03-29T00:07:39.852Z,6.90
2019-03-29T00:10:08.545Z,7.53
2019-03-29T00:12:37.829Z,6.57
2019-03-29T00:15:07.938Z,6.83
2019-03-29T00:17:37.348Z,6.70
2019-03-29T00:20:06.756Z,7.40
2019-03-29T00:22:36.250Z,7.57
2019-03-29T00:25:06.383Z,7.43
2019-03-29T00:27:36.413Z,6.43
2019-03-29T00:30:06.517Z,7.00
2019-03-29T00:32:35.785Z,6.90
2019-03-29T00:35:05.781Z,6.00
2019-03-29T00:37:35.102Z,6.60
2019-03-29T00:40:04.753Z,5.53
2019-03-29T00:42:34.057Z,5.60
2019-03-29T00:45:03.451Z,5.97
2019-03-29T00:47:32.701Z,4.90
2019-03-29T00:50:01.957Z,4.93
2019-03-29T00:52:31.217Z,5.70
2019-03-29T00:55:02.812Z,6.27
2019-03-29T00:57:32.045Z,5.50
2019-03-29T01:00:01.325Z,6.50
2019-03-29T01:02:30.578Z,5.43
2019-03-29T01:04:59.837Z,5.37
2019-03-29T01:07:29.114Z,5.77
2019-03-29T01:09:58.450Z,5.43
2019-03-29T01:12:28.717Z,4.77
2019-03-29T01:14:57.977Z,5.33
2019-03-29T01:17:27.290Z,5.13
2019-03-29T01:19:56.530Z,5.70
2019-03-29T01:22:25.800Z,6.83
2019-03-29T01:24:55.058Z,9.67
2019-03-29T01:27:24.329Z,7.80
2019-03-29T01:29:53.601Z,8.37
2019-03-29T01:32:22.926Z,6.37
2019-03-29T01:34:52.187Z,6.03
2019-03-29T01:37:21.449Z,6.83
2019-03-29T01:39:50.701Z,8.67
2019-03-29T01:42:19.941Z,8.77
2019-03-29T01:44:49.232Z,9.33
2019-03-29T01:47:18.481Z,9.53
2019-03-29T01:49:47.840Z,10.00
2019-03-29T01:52:17.113Z,9.87
2019-03-29T01:54:46.360Z,11.57
2019-03-29T01:57:15.625Z,14.27
2019-03-29T01:59:44.906Z,11.87
2019-03-29T02:02:14.154Z,12.53
2019-03-29T02:04:43.457Z,10.83
2019-03-29T02:07:12.723Z,11.30
2019-03-29T02:09:41.957Z,10.70
2019-03-29T02:12:11.329Z,10.70
2019-03-29T02:14:40.677Z,11.93
2019-03-29T02:17:09.921Z,10.83
2019-03-29T02:19:39.285Z,10.00
2019-03-29T02:22:09.101Z,10.03
2019-03-29T02:24:38.706Z,10.17
2019-03-29T02:27:07.965Z,10.17
2019-03-29T02:29:37.241Z,10.10
2019-03-29T02:32:06.471Z,10.40
2019-03-29T02:34:35.834Z,10.40
2019-03-29T02:37:05.190Z,10.87
2019-03-29T02:39:34.429Z,10.80
2019-03-29T02:42:03.781Z,10.53
2019-03-29T02:44:34.832Z,11.00
2019-03-29T02:47:04.236Z,11.07
2019-03-29T02:49:33.470Z,10.93
2019-03-29T02:52:02.762Z,11.17
2019-03-29T02:54:32.097Z,11.30
2019-03-29T02:57:02.883Z,12.33
2019-03-29T02:59:32.152Z,12.10
2019-03-29T03:02:01.497Z,11.37
2019-03-29T03:04:30.866Z,11.43
2019-03-29T03:07:00.426Z,11.10
2019-03-29T03:09:29.684Z,10.53
2019-03-29T03:11:59.042Z,11.40
2019-03-29T03:14:28.400Z,10.90
2019-03-29T03:16:57.724Z,12.10
2019-03-29T03:19:26.954Z,11.73
2019-03-29T03:21:56.242Z,10.47
2019-03-29T03:24:25.492Z,11.10
2019-03-29T03:26:54.868Z,10.47
2019-03-29T03:29:24.136Z,11.23
2019-03-29T03:31:53.368Z,11.00
2019-03-29T03:34:22.623Z,12.47
2019-03-29T03:36:51.974Z,11.33
2019-03-29T03:39:31.550Z,10.87
2019-03-29T03:41:52.349Z,11.47
2019-03-29T03:44:21.603Z,11.73
2019-03-29T03:46:50.907Z,9.67
2019-03-29T03:49:20.160Z,10.23
2019-03-29T03:51:49.600Z,10.43
2019-03-29T03:54:19.387Z,10.53
2019-03-29T03:56:51.033Z,10.77
2019-03-29T03:59:21.193Z,10.00
2019-03-29T04:01:50.453Z,9.50
2019-03-29T04:04:19.802Z,10.20
2019-03-29T04:06:49.066Z,9.43
2019-03-29T04:09:18.299Z,9.97
2019-03-29T04:11:47.572Z,9.67
2019-03-29T04:14:16.845Z,10.20
2019-03-29T04:16:46.098Z,9.87
2019-03-29T04:19:15.415Z,10.13
2019-03-29T04:21:44.812Z,10.23
2019-03-29T04:24:14.097Z,9.57
2019-03-29T04:26:43.340Z,10.30
2019-03-29T04:29:12.610Z,9.47
2019-03-29T04:31:41.867Z,8.57
2019-03-29T04:34:11.104Z,8.63
2019-03-29T04:36:40.365Z,8.20
2019-03-29T04:39:09.606Z,8.77
2019-03-29T04:41:38.969Z,8.73
2019-03-29T04:44:08.269Z,9.70
2019-03-29T04:46:37.589Z,9.20
2019-03-29T04:49:06.834Z,8.67
2019-03-29T04:51:36.106Z,8.93
2019-03-29T04:54:05.359Z,9.40
2019-03-29T04:56:34.587Z,8.73
2019-03-29T04:59:03.908Z,9.30
2019-03-29T05:01:33.201Z,9.93
2019-03-29T05:04:02.810Z,9.70
2019-03-29T05:06:32.053Z,10.30
2019-03-29T05:09:02.692Z,10.00
2019-03-29T05:11:31.954Z,10.73
2019-03-29T05:14:01.252Z,9.90
2019-03-29T05:16:30.536Z,11.33
2019-03-29T05:18:59.785Z,11.83
2019-03-29T05:21:29.073Z,12.67
2019-03-29T05:23:58.382Z,12.07
2019-03-29T05:26:27.671Z,12.97
2019-03-29T05:28:56.961Z,12.43
2019-03-29T05:31:26.267Z,13.50
2019-03-29T05:33:55.521Z,12.40
2019-03-29T05:36:24.845Z,13.13
2019-03-29T05:38:54.106Z,13.03
2019-03-29T05:41:23.339Z,12.63
2019-03-29T05:43:52.609Z,12.60
2019-03-29T05:46:21.853Z,12.60
2019-03-29T05:48:52.269Z,11.40
2019-03-29T05:51:21.567Z,13.07
2019-03-29T05:53:50.852Z,12.60
2019-03-29T05:56:20.160Z,13.07
2019-03-29T05:58:49.445Z,13.53
2019-03-29T06:01:18.761Z,12.90
2019-03-29T06:03:48.034Z,12.57
2019-03-29T06:06:17.313Z,13.17
2019-03-29T06:08:46.556Z,12.73
2019-03-29T06:11:15.897Z,11.67
2019-03-29T06:13:45.196Z,13.27
2019-03-29T06:16:14.540Z,12.20
2019-03-29T06:18:43.809Z,13.97
2019-03-29T06:21:13.123Z,14.60
2019-03-29T06:23:42.640Z,15.00
2019-03-29T06:26:11.855Z,13.70
2019-03-29T06:28:41.153Z,14.17
2019-03-29T06:31:10.565Z,13.23
2019-03-29T06:33:39.933Z,13.57
2019-03-29T06:36:10.406Z,13.47
2019-03-29T06:38:41.481Z,12.37
2019-03-29T06:41:10.779Z,12.97
2019-03-29T06:43:40.123Z,13.33
2019-03-29T06:46:09.371Z,12.70
2019-03-29T06:48:38.629Z,12.40
2019-03-29T06:51:07.945Z,13.07
2019-03-29T06:53:37.421Z,11.93
2019-03-29T06:56:06.736Z,12.87
2019-03-29T06:58:36.029Z,12.73
2019-03-29T07:01:05.388Z,12.13
2019-03-29T07:03:34.685Z,14.03
2019-03-29T07:06:04.077Z,12.00
2019-03-29T07:08:33.485Z,9.47
2019-03-29T07:11:16.174Z,11.23
2019-03-29T07:13:33.842Z,12.47
2019-03-29T07:16:03.157Z,13.40
2019-03-29T07:18:32.497Z,14.77
2019-03-29T07:21:01.963Z,13.23
2019-03-29T07:23:31.194Z,14.13
2019-03-29T07:26:00.738Z,15.10
2019-03-29T07:28:29.989Z,15.20
2019-03-29T07:30:59.245Z,16.47
2019-03-29T07:33:28.505Z,14.87
2019-03-29T07:35:57.869Z,16.23
2019-03-29T07:38:27.297Z,16.37
2019-03-29T07:40:56.538Z,14.53
2019-03-29T07:43:25.846Z,15.77
2019-03-29T07:45:55.105Z,15.30
2019-03-29T07:48:24.404Z,14.97
2019-03-29T07:50:53.697Z,16.10
2019-03-29T07:53:22.939Z,16.80
2019-03-29T07:55:52.325Z,16.70
2019-03-29T07:58:21.614Z,17.10
2019-03-29T08:00:50.979Z,20.83
2019-03-29T08:03:23.905Z,19.47
2019-03-29T08:05:53.276Z,19.87
2019-03-29T08:08:24.819Z,21.57
2019-03-29T08:10:54.226Z,20.23
2019-03-29T08:13:24.055Z,23.37
2019-03-29T08:15:53.334Z,21.60
2019-03-29T08:18:22.653Z,22.43
2019-03-29T08:20:52.003Z,21.43
2019-03-29T08:23:21.262Z,21.90
2019-03-29T08:25:50.525Z,23.77
2019-03-29T08:28:22.194Z,24.53
2019-03-29T08:30:51.504Z,23.53
2019-03-29T08:33:20.826Z,25.67
2019-03-29T08:35:50.125Z,25.43
2019-03-29T08:38:19.397Z,27.27
2019-03-29T08:40:48.670Z,26.00
2019-03-29T08:43:18.053Z,26.00
2019-03-29T08:45:47.312Z,27.47
2019-03-29T08:48:16.582Z,28.77
2019-03-29T08:50:45.933Z,25.50
2019-03-29T08:53:15.321Z,27.83
2019-03-29T08:55:46.055Z,26.57
2019-03-29T08:58:15.758Z,27.47
2019-03-29T09:00:45.013Z,27.40
2019-03-29T09:03:14.273Z,26.83
2019-03-29T09:05:43.629Z,25.83
2019-03-29T09:08:12.897Z,25.17
2019-03-29T09:10:42.168Z,28.37
2019-03-29T09:13:11.554Z,28.13
2019-03-29T09:15:40.958Z,28.90
2019-03-29T09:18:10.326Z,28.40
2019-03-29T09:20:39.613Z,32.53
2019-03-29T09:23:10.544Z,32.13
2019-03-29T09:25:40.564Z,30.93
2019-03-29T09:28:10.210Z,31.53
2019-03-29T09:30:39.466Z,31.23
2019-03-29T09:33:08.872Z,29.87
2019-03-29T09:35:38.281Z,29.93
2019-03-29T09:38:07.555Z,29.83
2019-03-29T09:40:36.881Z,30.60
2019-03-29T09:43:07.610Z,28.40
2019-03-29T09:45:37.261Z,27.80
2019-03-29T09:48:06.605Z,30.77
2019-03-29T09:50:36.027Z,31.53
2019-03-29T09:53:05.391Z,31.23
2019-03-29T09:55:34.629Z,33.07
2019-03-29T09:58:03.886Z,31.40
2019-03-29T10:00:33.215Z,32.80
2019-03-29T10:03:02.522Z,33.63
2019-03-29T10:05:31.880Z,30.77
2019-03-29T10:08:01.231Z,32.77
2019-03-29T10:10:30.614Z,31.40
2019-03-29T10:12:59.975Z,31.50
2019-03-29T10:15:29.417Z,32.77
2019-03-29T10:17:58.742Z,30.27
2019-03-29T10:20:28.025Z,31.63
2019-03-29T10:22:57.289Z,32.17
2019-03-29T10:25:26.559Z,31.10
2019-03-29T10:27:55.829Z,32.70
2019-03-29T10:30:38.878Z,33.33
2019-03-29T10:33:08.148Z,32.57
2019-03-29T10:35:50.803Z,32.90
2019-03-29T10:38:09.089Z,32.20
2019-03-29T10:40:38.399Z,32.00
2019-03-29T10:43:07.639Z,32.40
2019-03-29T10:45:40.339Z,32.40
2019-03-29T10:48:08.189Z,31.37
2019-03-29T10:50:37.460Z,31.43
2019-03-29T10:53:06.806Z,32.07
2019-03-29T10:55:36.188Z,32.77
2019-03-29T10:58:24.411Z,30.23
2019-03-29T11:00:53.706Z,32.30
2019-03-29T11:03:23.038Z,32.70
2019-03-29T11:05:52.282Z,32.87
2019-03-29T11:08:21.562Z,31.50
2019-03-29T11:10:50.819Z,31.40
2019-03-29T11:13:20.162Z,32.10
2019-03-29T11:15:49.522Z,31.00
2019-03-29T11:18:18.850Z,30.80
2019-03-29T11:20:48.101Z,30.95
2019-03-29T11:23:17.414Z,32.13
2019-03-29T11:25:48.562Z,31.53
2019-03-29T11:28:17.683Z,30.95
2019-03-29T11:30:46.954Z,31.70
2019-03-29T11:33:16.220Z,32.03
2019-03-29T11:35:45.553Z,30.37
2019-03-29T11:38:14.825Z,29.10
2019-03-29T11:40:44.110Z,32.42
2019-03-29T11:43:26.112Z,33.35
2019-03-29T11:45:44.407Z,33.18
2019-03-29T11:48:13.721Z,32.15
2019-03-29T11:50:43.053Z,32.28
2019-03-29T11:53:12.417Z,31.60
2019-03-29T11:55:41.753Z,29.85
2019-03-29T11:58:11.018Z,31.12
2019-03-29T12:00:40.587Z,31.30
2019-03-29T12:03:10.158Z,29.30
2019-03-29T12:05:39.399Z,30.48
2019-03-29T12:08:08.801Z,31.00
2019-03-29T12:10:38.141Z,31.17
2019-03-29T12:13:08.908Z,30.25
2019-03-29T12:15:38.821Z,32.50
2019-03-29T12:18:08.258Z,30.82
2019-03-29T12:20:37.532Z,27.90
2019-03-29T12:23:06.968Z,31.35
2019-03-29T12:25:36.248Z,31.85
2019-03-29T12:28:06.161Z,30.45
2019-03-29T12:30:35.718Z,30.27
2019-03-29T12:33:05.157Z,31.27
2019-03-29T12:35:34.417Z,30.32
2019-03-29T12:38:03.764Z,30.05
2019-03-29T12:40:33.161Z,30.05
2019-03-29T12:43:02.478Z,30.92
2019-03-29T12:45:31.932Z,29.48
2019-03-29T12:48:01.350Z,28.02
2019-03-29T12:50:30.634Z,28.15
2019-03-29T12:53:02.874Z,27.50
2019-03-29T12:55:32.145Z,27.67
2019-03-29T12:58:01.414Z,28.30
2019-03-29T13:00:30.847Z,25.77
2019-03-29T13:03:00.145Z,26.27
2019-03-29T13:05:29.470Z,28.40
2019-03-29T13:07:58.869Z,26.45
2019-03-29T13:10:28.461Z,24.95
2019-03-29T13:13:00.506Z,29.05
2019-03-29T13:15:29.173Z,23.50
2019-03-29T13:17:58.549Z,22.58
2019-03-29T13:20:27.894Z,22.42
2019-03-29T13:22:57.194Z,21.80
2019-03-29T13:25:26.437Z,21.85
2019-03-29T13:27:59.206Z,21.75
2019-03-29T13:30:26.869Z,22.40
2019-03-29T13:32:56.153Z,20.02
2019-03-29T13:35:25.569Z,18.67
2019-03-29T13:37:55.033Z,20.20
2019-03-29T13:40:24.439Z,18.48
2019-03-29T13:42:53.708Z,17.82
2019-03-29T13:45:23.000Z,18.75
2019-03-29T13:47:52.238Z,18.60
2019-03-29T13:50:21.537Z,16.97
2019-03-29T13:52:50.811Z,18.10
2019-03-29T13:55:20.144Z,17.32
2019-03-29T13:57:49.402Z,16.95
2019-03-29T14:00:18.861Z,15.80
2019-03-29T14:02:48.175Z,17.23
2019-03-29T14:05:17.459Z,17.25
2019-03-29T14:07:46.748Z,16.87
2019-03-29T14:10:16.211Z,18.07
2019-03-29T14:12:45.463Z,17.67
2019-03-29T14:15:15.791Z,16.70
2019-03-29T14:17:45.101Z,17.45
2019-03-29T14:20:17.519Z,16.67
2019-03-29T14:22:46.816Z,18.15
2019-03-29T14:25:16.136Z,17.12
2019-03-29T14:27:45.411Z,16.62
2019-03-29T14:30:14.941Z,17.40
2019-03-29T14:32:44.207Z,17.52
2019-03-29T14:35:13.681Z,16.55
2019-03-29T14:37:42.989Z,16.15
2019-03-29T14:40:12.426Z,15.50
2019-03-29T14:42:42.718Z,15.72
2019-03-29T14:45:12.486Z,15.60
2019-03-29T14:47:43.791Z,16.32
2019-03-29T14:50:12.904Z,16.50
2019-03-29T14:52:42.195Z,16.12
2019-03-29T14:55:11.885Z,15.85
2019-03-29T14:57:41.294Z,16.52
2019-03-29T15:00:12.713Z,16.62
2019-03-29T15:02:41.985Z,16.32
2019-03-29T15:05:11.597Z,17.40
2019-03-29T15:07:42.856Z,17.87
2019-03-29T15:10:26.217Z,17.85
2019-03-29T15:12:55.695Z,18.10
2019-03-29T15:15:25.120Z,18.40
2019-03-29T15:17:54.495Z,17.12
2019-03-29T15:20:23.863Z,17.45
2019-03-29T15:22:53.200Z,17.65
2019-03-29T15:25:22.637Z,18.57
2019-03-29T15:27:51.906Z,18.02
2019-03-29T15:30:21.394Z,16.77
2019-03-29T15:32:50.736Z,15.68
2019-03-29T15:35:21.037Z,15.20
2019-03-29T15:37:50.493Z,16.42
2019-03-29T15:40:19.821Z,14.58
2019-03-29T15:42:49.209Z,22.20
2019-03-29T15:45:20.705Z,16.10
2019-03-29T15:47:49.590Z,15.13
2019-03-29T15:50:18.905Z,14.43
2019-03-29T15:52:48.150Z,13.68
2019-03-29T15:55:17.538Z,14.60
2019-03-29T15:57:46.848Z,15.35
2019-03-29T16:00:19.095Z,14.10
2019-03-29T16:02:48.527Z,14.25
2019-03-29T16:05:19.515Z,12.90
2019-03-29T16:07:49.548Z,13.15
2019-03-29T16:10:18.925Z,13.68
2019-03-29T16:12:48.921Z,11.95
2019-03-29T16:15:18.385Z,12.18
2019-03-29T16:17:47.679Z,11.93
2019-03-29T16:20:17.077Z,10.63
2019-03-29T16:22:46.325Z,10.23
2019-03-29T16:25:15.767Z,10.30
2019-03-29T16:27:45.201Z,11.30
2019-03-29T16:30:14.965Z,9.63
2019-03-29T16:32:44.257Z,8.88
2019-03-29T16:35:13.678Z,9.25
2019-03-29T16:37:56.385Z,9.13
2019-03-29T16:40:14.305Z,10.45
2019-03-29T16:42:43.644Z,9.23
2019-03-29T16:45:13.585Z,9.20
2019-03-29T16:47:42.891Z,9.23
2019-03-29T16:50:13.733Z,9.75
2019-03-29T16:52:43.038Z,8.15
2019-03-29T16:55:14.084Z,8.83
2019-03-29T16:57:43.483Z,9.00
2019-03-29T17:00:13.037Z,10.63
2019-03-29T17:02:42.473Z,9.48
2019-03-29T17:05:12.056Z,8.53
2019-03-29T17:07:41.413Z,8.78
2019-03-29T17:10:11.281Z,8.78
2019-03-29T17:12:40.555Z,9.98
2019-03-29T17:15:09.908Z,9.70
2019-03-29T17:17:39.153Z,8.90
2019-03-29T17:20:08.937Z,8.38
2019-03-29T17:22:38.221Z,9.90
2019-03-29T17:25:08.031Z,8.80
2019-03-29T17:27:37.332Z,9.68
2019-03-29T17:30:09.455Z,9.78
2019-03-29T17:32:38.702Z,9.58
2019-03-29T17:35:08.405Z,10.68
2019-03-29T17:37:37.754Z,10.28
2019-03-29T17:40:07.720Z,10.43
2019-03-29T17:42:37.093Z,10.63
2019-03-29T17:45:06.977Z,10.95
2019-03-29T17:47:36.236Z,11.68
2019-03-29T17:50:06.321Z,10.98
2019-03-29T17:52:35.629Z,10.43
2019-03-29T17:55:05.801Z,20.80
2019-03-29T17:57:35.159Z,26.33
2019-03-29T18:00:05.847Z,31.62
2019-03-29T18:02:35.189Z,35.30
2019-03-29T18:05:05.381Z,35.05
2019-03-29T18:07:34.712Z,35.17
2019-03-29T18:10:04.596Z,36.27
2019-03-29T18:12:33.939Z,35.80
2019-03-29T18:15:03.233Z,35.63
2019-03-29T18:17:32.502Z,36.97
2019-03-29T18:20:01.797Z,36.50
2019-03-29T18:22:31.228Z,37.13
2019-03-29T18:25:01.767Z,37.07
2019-03-29T18:27:31.097Z,38.03
2019-03-29T18:30:02.365Z,34.90
2019-03-29T18:32:32.821Z,39.13
2019-03-29T18:35:02.328Z,37.70
2019-03-29T18:37:31.745Z,39.03
2019-03-29T18:40:01.631Z,40.00
2019-03-29T18:42:31.078Z,39.83
2019-03-29T18:45:00.506Z,38.63
2019-03-29T18:47:29.797Z,40.60
2019-03-29T18:49:59.186Z,38.90
2019-03-29T18:52:28.440Z,41.00
2019-03-29T18:54:57.819Z,39.53
2019-03-29T18:57:27.093Z,45.65
2019-03-29T18:59:56.350Z,40.67
2019-03-29T19:02:25.629Z,37.73
2019-03-29T19:04:54.897Z,41.20
2019-03-29T19:07:29.281Z,39.87
2019-03-29T19:09:58.672Z,39.23
2019-03-29T19:12:27.941Z,38.30
2019-03-29T19:14:57.203Z,40.43
2019-03-29T19:17:26.501Z,39.47
2019-03-29T19:19:55.842Z,38.23
2019-03-29T19:22:25.270Z,39.27
2019-03-29T19:24:54.655Z,44.73
2019-03-29T19:27:23.930Z,41.07
2019-03-29T19:29:53.187Z,37.80
2019-03-29T19:32:22.915Z,37.20
2019-03-29T19:34:52.217Z,37.53
2019-03-29T19:37:21.538Z,38.57
2019-03-29T19:39:50.877Z,37.93
2019-03-29T19:42:20.158Z,37.57
2019-03-29T19:44:49.445Z,38.37
2019-03-29T19:47:18.970Z,37.50
2019-03-29T19:49:48.297Z,37.27
2019-03-29T19:52:17.558Z,37.57
2019-03-29T19:54:46.948Z,38.10
2019-03-29T19:57:16.355Z,34.53
2019-03-29T19:59:48.075Z,35.83
2019-03-29T20:02:16.794Z,41.63
2019-03-29T20:04:46.136Z,36.73
2019-03-29T20:07:15.419Z,43.80
2019-03-29T20:09:44.752Z,37.10
2019-03-29T20:12:14.097Z,35.93
2019-03-29T20:14:43.359Z,36.27
2019-03-29T20:17:26.687Z,36.60
2019-03-29T20:19:43.706Z,35.53
2019-03-29T20:22:16.039Z,37.20
2019-03-29T20:24:43.974Z,35.33
2019-03-29T20:27:13.232Z,36.60
2019-03-29T20:29:42.492Z,35.63
2019-03-29T20:32:11.797Z,33.50
2019-03-29T20:34:41.063Z,34.17
2019-03-29T20:37:10.334Z,33.30
2019-03-29T20:39:39.617Z,31.50
2019-03-29T20:42:08.991Z,30.50
2019-03-29T20:44:38.325Z,34.27
2019-03-29T20:47:07.614Z,31.13
2019-03-29T20:49:39.231Z,30.63
2019-03-29T20:52:08.489Z,28.03
2019-03-29T20:54:37.833Z,28.00
2019-03-29T20:57:09.269Z,28.83
2019-03-29T20:59:38.541Z,28.83
2019-03-29T21:02:07.846Z,27.07
2019-03-29T21:04:37.133Z,28.87
2019-03-29T21:07:08.775Z,28.97
2019-03-29T21:09:38.134Z,32.23
2019-03-29T21:12:07.384Z,32.50
2019-03-29T21:14:36.674Z,28.87
2019-03-29T21:17:06.033Z,28.70
2019-03-29T21:19:35.269Z,28.40
2019-03-29T21:22:04.637Z,28.13
2019-03-29T21:24:33.980Z,27.90
2019-03-29T21:27:03.261Z,28.50
2019-03-29T21:29:32.641Z,29.10
2019-03-29T21:32:02.169Z,32.38
2019-03-29T21:34:31.447Z,28.17
2019-03-29T21:37:00.836Z,28.77
2019-03-29T21:39:31.353Z,29.27
2019-03-29T21:42:00.881Z,29.97
2019-03-29T21:44:30.173Z,30.90
2019-03-29T21:46:59.601Z,32.87
2019-03-29T21:49:28.931Z,30.87
2019-03-29T21:51:58.398Z,29.73
2019-03-29T21:54:27.712Z,30.47
2019-03-29T21:56:57.338Z,30.20
2019-03-29T21:59:26.738Z,31.63
2019-03-29T22:01:56.015Z,30.43
2019-03-29T22:04:25.294Z,32.17
2019-03-29T22:06:54.604Z,31.97
2019-03-29T22:09:36.368Z,35.70
2019-03-29T22:11:54.856Z,32.97
2019-03-29T22:14:24.213Z,33.83
2019-03-29T22:16:53.466Z,33.20
2019-03-29T22:19:22.753Z,32.07
2019-03-29T22:21:52.062Z,34.87
2019-03-29T22:24:21.495Z,33.43
2019-03-29T22:26:50.896Z,35.40
2019-03-29T22:29:20.373Z,34.43
2019-03-29T22:31:49.660Z,33.50
2019-03-29T22:34:19.193Z,33.13
2019-03-29T22:36:48.473Z,34.37
2019-03-29T22:39:17.771Z,35.97
2019-03-29T22:41:48.814Z,36.33
2019-03-29T22:44:22.033Z,35.27
2019-03-29T22:46:51.454Z,35.33
2019-03-29T22:49:20.756Z,36.27
2019-03-29T22:51:50.127Z,33.87
2019-03-29T22:54:19.485Z,37.03
2019-03-29T22:56:48.801Z,35.33
2019-03-29T22:59:18.116Z,34.43
2019-03-29T23:01:48.101Z,37.40
2019-03-29T23:04:20.558Z,34.93
2019-03-29T23:06:54.825Z,33.13
2019-03-29T23:09:24.187Z,33.03
2019-03-29T23:11:53.468Z,34.77
2019-03-29T23:14:22.934Z,33.10
2019-03-29T23:16:52.397Z,33.27
2019-03-29T23:19:21.905Z,34.33
2019-03-29T23:21:51.395Z,33.90
2019-03-29T23:24:20.788Z,35.70
2019-03-29T23:26:50.045Z,34.13
2019-03-29T23:29:19.452Z,32.17
2019-03-29T23:31:48.683Z,31.93
2019-03-29T23:34:18.047Z,32.33
2019-03-29T23:36:47.331Z,32.50
2019-03-29T23:39:16.921Z,31.27
2019-03-29T23:41:46.205Z,38.23
2019-03-29T23:44:15.600Z,33.23
2019-03-29T23:46:44.865Z,30.70
2019-03-29T23:49:20.863Z,30.57
2019-03-29T23:51:45.188Z,30.17
2019-03-29T23:54:14.545Z,29.33
2019-03-29T23:56:43.808Z,30.73
2019-03-29T23:59:13.218Z,29.90
